sensor_id;sensor_type;location;lat;lon;timestamp;P1;durP1;ratioP1;P2;durP2;ratioP2
6412;SDS011;3239;48.714;9.472;2023-05-19T00:01:08;7.80;;;2.00;;
6412;SDS011;3239;48.714;9.472;2023-05-19T00:03:34;8.00;;;2.20;;
6412;SDS011;3239;48.714;9.472;2023-05-19T00:06:04;7.70;;;2.20;;
6412;SDS011;3239;48.714;9.472;2023-05-19T00:08:34;6.97;;;2.70;;
6412;SDS011;3239;48.714;9.472;2023-05-19T00:11:02;7.90;;;2.47;;
6412;SDS011;3239;48.714;9.472;2023-05-19T00:13:29;6.50;;;2.67;;
6412;SDS011;3239;48.714;9.472;2023-05-19T00:15:55;5.83;;;2.53;;
6412;SDS011;3239;48.714;9.472;2023-05-19T00:18:21;4.53;;;1.93;;
6412;SDS011;3239;48.714;9.472;2023-05-19T00:20:47;8.10;;;2.23;;
6412;SDS011;3239;48.714;9.472;2023-05-19T00:23:13;6.37;;;2.87;;
6412;SDS011;3239;48.714;9.472;2023-05-19T00:25:39;7.37;;;2.23;;
6412;SDS011;3239;48.714;9.472;2023-05-19T00:28:05;10.83;;;2.63;;
6412;SDS011;3239;48.714;9.472;2023-05-19T00:30:30;5.30;;;2.57;;
6412;SDS011;3239;48.714;9.472;2023-05-19T00:32:56;2.80;;;1.67;;
6412;SDS011;3239;48.714;9.472;2023-05-19T00:35:22;5.90;;;2.30;;
6412;SDS011;3239;48.714;9.472;2023-05-19T00:37:48;6.47;;;1.80;;
6412;SDS011;3239;48.714;9.472;2023-05-19T00:40:14;4.70;;;1.87;;
6412;SDS011;3239;48.714;9.472;2023-05-19T00:42:40;5.37;;;2.13;;
6412;SDS011;3239;48.714;9.472;2023-05-19T00:45:06;3.40;;;2.27;;
6412;SDS011;3239;48.714;9.472;2023-05-19T00:47:33;7.07;;;2.40;;
6412;SDS011;3239;48.714;9.472;2023-05-19T00:49:59;2.73;;;1.87;;
6412;SDS011;3239;48.714;9.472;2023-05-19T00:52:25;5.13;;;1.90;;
6412;SDS011;3239;48.714;9.472;2023-05-19T00:54:52;3.83;;;1.90;;
6412;SDS011;3239;48.714;9.472;2023-05-19T00:57:19;3.47;;;2.30;;
6412;SDS011;3239;48.714;9.472;2023-05-19T00:59:46;6.33;;;1.90;;
6412;SDS011;3239;48.714;9.472;2023-05-19T01:02:12;3.03;;;2.20;;
6412;SDS011;3239;48.714;9.472;2023-05-19T01:04:39;4.70;;;2.20;;
6412;SDS011;3239;48.714;9.472;2023-05-19T01:07:05;5.03;;;1.87;;
6412;SDS011;3239;48.714;9.472;2023-05-19T01:09:31;4.47;;;2.50;;
6412;SDS011;3239;48.714;9.472;2023-05-19T01:11:58;4.90;;;1.90;;
6412;SDS011;3239;48.714;9.472;2023-05-19T01:14:25;5.10;;;2.13;;
6412;SDS011;3239;48.714;9.472;2023-05-19T01:19:47;4.20;;;1.87;;
6412;SDS011;3239;48.714;9.472;2023-05-19T01:22:51;3.67;;;1.97;;
6412;SDS011;3239;48.714;9.472;2023-05-19T01:31:31;3.23;;;2.00;;
6412;SDS011;3239;48.714;9.472;2023-05-19T01:33:59;6.43;;;2.50;;
6412;SDS011;3239;48.714;9.472;2023-05-19T01:36:28;4.10;;;1.93;;
6412;SDS011;3239;48.714;9.472;2023-05-19T01:38:56;6.33;;;2.20;;
6412;SDS011;3239;48.714;9.472;2023-05-19T01:41:24;4.60;;;2.30;;
6412;SDS011;3239;48.714;9.472;2023-05-19T01:43:52;6.17;;;1.93;;
6412;SDS011;3239;48.714;9.472;2023-05-19T01:46:18;4.90;;;2.10;;
6412;SDS011;3239;48.714;9.472;2023-05-19T01:48:46;4.47;;;1.93;;
6412;SDS011;3239;48.714;9.472;2023-05-19T01:51:12;3.37;;;2.10;;
6412;SDS011;3239;48.714;9.472;2023-05-19T01:53:38;6.60;;;2.30;;
6412;SDS011;3239;48.714;9.472;2023-05-19T01:56:04;5.03;;;2.37;;
6412;SDS011;3239;48.714;9.472;2023-05-19T01:58:44;5.90;;;2.20;;
6412;SDS011;3239;48.714;9.472;2023-05-19T02:06:54;3.17;;;2.40;;
6412;SDS011;3239;48.714;9.472;2023-05-19T02:15:04;3.87;;;2.13;;
6412;SDS011;3239;48.714;9.472;2023-05-19T02:17:46;7.30;;;2.73;;
6412;SDS011;3239;48.714;9.472;2023-05-19T02:20:15;6.47;;;2.60;;
6412;SDS011;3239;48.714;9.472;2023-05-19T02:22:42;10.70;;;2.50;;
6412;SDS011;3239;48.714;9.472;2023-05-19T02:25:09;3.80;;;2.10;;
6412;SDS011;3239;48.714;9.472;2023-05-19T02:27:35;7.93;;;2.40;;
6412;SDS011;3239;48.714;9.472;2023-05-19T02:30:03;6.50;;;2.73;;
6412;SDS011;3239;48.714;9.472;2023-05-19T02:32:30;4.63;;;2.10;;
6412;SDS011;3239;48.714;9.472;2023-05-19T02:34:56;5.87;;;2.50;;
6412;SDS011;3239;48.714;9.472;2023-05-19T02:37:22;5.77;;;2.30;;
6412;SDS011;3239;48.714;9.472;2023-05-19T02:39:48;5.43;;;2.60;;
6412;SDS011;3239;48.714;9.472;2023-05-19T02:42:14;4.13;;;2.63;;
6412;SDS011;3239;48.714;9.472;2023-05-19T02:44:42;8.80;;;2.63;;
6412;SDS011;3239;48.714;9.472;2023-05-19T02:47:08;5.30;;;2.40;;
6412;SDS011;3239;48.714;9.472;2023-05-19T02:49:33;4.97;;;2.30;;
6412;SDS011;3239;48.714;9.472;2023-05-19T02:52:02;5.50;;;2.57;;
6412;SDS011;3239;48.714;9.472;2023-05-19T02:54:29;5.67;;;2.40;;
6412;SDS011;3239;48.714;9.472;2023-05-19T02:56:56;6.43;;;2.50;;
6412;SDS011;3239;48.714;9.472;2023-05-19T02:59:22;3.77;;;2.27;;
6412;SDS011;3239;48.714;9.472;2023-05-19T03:01:48;3.13;;;2.10;;
6412;SDS011;3239;48.714;9.472;2023-05-19T03:04:14;3.63;;;2.50;;
6412;SDS011;3239;48.714;9.472;2023-05-19T03:06:43;5.80;;;2.37;;
6412;SDS011;3239;48.714;9.472;2023-05-19T03:09:10;3.70;;;2.57;;
6412;SDS011;3239;48.714;9.472;2023-05-19T03:11:37;7.27;;;2.67;;
6412;SDS011;3239;48.714;9.472;2023-05-19T03:14:03;9.40;;;3.20;;
6412;SDS011;3239;48.714;9.472;2023-05-19T03:16:29;4.80;;;2.43;;
6412;SDS011;3239;48.714;9.472;2023-05-19T03:18:55;6.67;;;2.33;;
6412;SDS011;3239;48.714;9.472;2023-05-19T03:21:21;4.00;;;2.13;;
6412;SDS011;3239;48.714;9.472;2023-05-19T03:23:47;5.70;;;2.47;;
6412;SDS011;3239;48.714;9.472;2023-05-19T03:26:13;3.80;;;2.00;;
6412;SDS011;3239;48.714;9.472;2023-05-19T03:28:38;6.10;;;2.40;;
6412;SDS011;3239;48.714;9.472;2023-05-19T03:31:04;3.70;;;2.30;;
6412;SDS011;3239;48.714;9.472;2023-05-19T03:33:30;7.53;;;2.67;;
6412;SDS011;3239;48.714;9.472;2023-05-19T03:35:55;4.57;;;2.23;;
6412;SDS011;3239;48.714;9.472;2023-05-19T03:38:21;4.17;;;2.83;;
6412;SDS011;3239;48.714;9.472;2023-05-19T03:40:47;4.63;;;3.17;;
6412;SDS011;3239;48.714;9.472;2023-05-19T03:43:13;4.53;;;2.83;;
6412;SDS011;3239;48.714;9.472;2023-05-19T03:45:40;4.03;;;2.60;;
6412;SDS011;3239;48.714;9.472;2023-05-19T03:48:06;5.00;;;2.73;;
6412;SDS011;3239;48.714;9.472;2023-05-19T03:50:32;4.63;;;2.93;;
6412;SDS011;3239;48.714;9.472;2023-05-19T03:52:58;6.20;;;2.90;;
6412;SDS011;3239;48.714;9.472;2023-05-19T03:55:24;6.27;;;2.30;;
6412;SDS011;3239;48.714;9.472;2023-05-19T03:57:53;4.67;;;2.77;;
6412;SDS011;3239;48.714;9.472;2023-05-19T04:00:20;3.53;;;2.20;;
6412;SDS011;3239;48.714;9.472;2023-05-19T04:02:46;4.03;;;2.33;;
6412;SDS011;3239;48.714;9.472;2023-05-19T04:05:12;8.53;;;2.50;;
6412;SDS011;3239;48.714;9.472;2023-05-19T04:07:38;4.60;;;2.20;;
6412;SDS011;3239;48.714;9.472;2023-05-19T04:10:04;7.63;;;2.30;;
6412;SDS011;3239;48.714;9.472;2023-05-19T04:12:30;6.40;;;2.50;;
6412;SDS011;3239;48.714;9.472;2023-05-19T04:14:56;6.77;;;2.73;;
6412;SDS011;3239;48.714;9.472;2023-05-19T04:17:23;6.87;;;2.30;;
6412;SDS011;3239;48.714;9.472;2023-05-19T04:19:50;4.10;;;2.00;;
6412;SDS011;3239;48.714;9.472;2023-05-19T04:22:17;5.80;;;2.17;;
6412;SDS011;3239;48.714;9.472;2023-05-19T04:24:43;7.13;;;2.63;;
6412;SDS011;3239;48.714;9.472;2023-05-19T04:27:09;4.07;;;2.10;;
6412;SDS011;3239;48.714;9.472;2023-05-19T04:29:39;6.70;;;2.43;;
6412;SDS011;3239;48.714;9.472;2023-05-19T04:32:06;5.03;;;2.33;;
6412;SDS011;3239;48.714;9.472;2023-05-19T04:34:32;5.47;;;2.73;;
6412;SDS011;3239;48.714;9.472;2023-05-19T04:36:59;7.77;;;2.90;;
6412;SDS011;3239;48.714;9.472;2023-05-19T04:39:25;4.10;;;2.23;;
6412;SDS011;3239;48.714;9.472;2023-05-19T04:41:51;6.73;;;2.27;;
6412;SDS011;3239;48.714;9.472;2023-05-19T04:44:20;4.40;;;2.20;;
6412;SDS011;3239;48.714;9.472;2023-05-19T04:46:46;7.80;;;2.50;;
6412;SDS011;3239;48.714;9.472;2023-05-19T04:49:11;5.20;;;2.03;;
6412;SDS011;3239;48.714;9.472;2023-05-19T04:51:37;4.53;;;2.60;;
6412;SDS011;3239;48.714;9.472;2023-05-19T04:54:08;12.80;;;2.87;;
6412;SDS011;3239;48.714;9.472;2023-05-19T04:56:34;5.77;;;2.80;;
6412;SDS011;3239;48.714;9.472;2023-05-19T04:59:00;4.13;;;2.40;;
6412;SDS011;3239;48.714;9.472;2023-05-19T05:01:26;3.00;;;2.27;;
6412;SDS011;3239;48.714;9.472;2023-05-19T05:03:53;6.17;;;2.90;;
6412;SDS011;3239;48.714;9.472;2023-05-19T05:06:19;5.40;;;2.70;;
6412;SDS011;3239;48.714;9.472;2023-05-19T05:08:46;4.00;;;2.50;;
6412;SDS011;3239;48.714;9.472;2023-05-19T05:11:13;6.00;;;2.70;;
6412;SDS011;3239;48.714;9.472;2023-05-19T05:13:40;7.67;;;2.60;;
6412;SDS011;3239;48.714;9.472;2023-05-19T05:16:06;4.57;;;2.40;;
6412;SDS011;3239;48.714;9.472;2023-05-19T05:18:33;6.30;;;2.63;;
6412;SDS011;3239;48.714;9.472;2023-05-19T05:21:00;4.70;;;2.40;;
6412;SDS011;3239;48.714;9.472;2023-05-19T05:23:27;6.33;;;2.10;;
6412;SDS011;3239;48.714;9.472;2023-05-19T05:25:53;6.43;;;2.47;;
6412;SDS011;3239;48.714;9.472;2023-05-19T05:28:19;5.00;;;2.57;;
6412;SDS011;3239;48.714;9.472;2023-05-19T05:30:45;10.50;;;2.63;;
6412;SDS011;3239;48.714;9.472;2023-05-19T05:33:11;4.73;;;2.50;;
6412;SDS011;3239;48.714;9.472;2023-05-19T05:35:36;6.20;;;2.40;;
6412;SDS011;3239;48.714;9.472;2023-05-19T05:38:02;4.77;;;2.10;;
6412;SDS011;3239;48.714;9.472;2023-05-19T05:40:28;6.10;;;2.50;;
6412;SDS011;3239;48.714;9.472;2023-05-19T05:42:54;4.57;;;2.20;;
6412;SDS011;3239;48.714;9.472;2023-05-19T05:45:24;8.27;;;2.37;;
6412;SDS011;3239;48.714;9.472;2023-05-19T05:47:50;5.60;;;2.23;;
6412;SDS011;3239;48.714;9.472;2023-05-19T05:50:16;9.83;;;2.50;;
6412;SDS011;3239;48.714;9.472;2023-05-19T05:52:46;5.20;;;1.93;;
6412;SDS011;3239;48.714;9.472;2023-05-19T05:55:13;7.07;;;2.43;;
6412;SDS011;3239;48.714;9.472;2023-05-19T05:57:41;6.80;;;2.87;;
6412;SDS011;3239;48.714;9.472;2023-05-19T06:00:07;6.20;;;2.97;;
6412;SDS011;3239;48.714;9.472;2023-05-19T06:02:39;5.23;;;2.40;;
6412;SDS011;3239;48.714;9.472;2023-05-19T06:05:13;5.57;;;2.40;;
6412;SDS011;3239;48.714;9.472;2023-05-19T06:07:39;7.70;;;2.80;;
6412;SDS011;3239;48.714;9.472;2023-05-19T06:10:05;9.33;;;2.70;;
6412;SDS011;3239;48.714;9.472;2023-05-19T06:12:32;6.43;;;2.27;;
6412;SDS011;3239;48.714;9.472;2023-05-19T06:14:59;6.43;;;2.50;;
6412;SDS011;3239;48.714;9.472;2023-05-19T06:17:26;6.13;;;2.40;;
6412;SDS011;3239;48.714;9.472;2023-05-19T06:19:52;6.00;;;2.20;;
6412;SDS011;3239;48.714;9.472;2023-05-19T06:22:18;5.73;;;3.00;;
6412;SDS011;3239;48.714;9.472;2023-05-19T06:24:44;4.20;;;2.63;;
6412;SDS011;3239;48.714;9.472;2023-05-19T06:27:10;7.50;;;2.37;;
6412;SDS011;3239;48.714;9.472;2023-05-19T06:29:35;7.50;;;2.70;;
6412;SDS011;3239;48.714;9.472;2023-05-19T06:32:01;5.73;;;2.03;;
6412;SDS011;3239;48.714;9.472;2023-05-19T06:34:27;4.50;;;2.37;;
6412;SDS011;3239;48.714;9.472;2023-05-19T06:36:53;11.80;;;3.67;;
6412;SDS011;3239;48.714;9.472;2023-05-19T06:39:18;5.40;;;2.80;;
6412;SDS011;3239;48.714;9.472;2023-05-19T06:41:44;7.13;;;2.60;;
6412;SDS011;3239;48.714;9.472;2023-05-19T06:44:10;6.73;;;2.70;;
6412;SDS011;3239;48.714;9.472;2023-05-19T06:46:35;7.60;;;3.10;;
6412;SDS011;3239;48.714;9.472;2023-05-19T06:49:01;3.97;;;2.57;;
6412;SDS011;3239;48.714;9.472;2023-05-19T06:51:27;6.20;;;2.27;;
6412;SDS011;3239;48.714;9.472;2023-05-19T06:53:53;6.23;;;2.77;;
6412;SDS011;3239;48.714;9.472;2023-05-19T06:56:18;5.40;;;2.23;;
6412;SDS011;3239;48.714;9.472;2023-05-19T06:58:45;4.83;;;3.03;;
6412;SDS011;3239;48.714;9.472;2023-05-19T07:01:11;4.73;;;2.20;;
6412;SDS011;3239;48.714;9.472;2023-05-19T07:03:36;7.40;;;2.50;;
6412;SDS011;3239;48.714;9.472;2023-05-19T07:06:02;5.90;;;2.40;;
6412;SDS011;3239;48.714;9.472;2023-05-19T07:08:28;4.77;;;2.73;;
6412;SDS011;3239;48.714;9.472;2023-05-19T07:10:54;8.53;;;2.60;;
6412;SDS011;3239;48.714;9.472;2023-05-19T07:13:20;8.97;;;2.23;;
6412;SDS011;3239;48.714;9.472;2023-05-19T07:15:46;5.33;;;2.63;;
6412;SDS011;3239;48.714;9.472;2023-05-19T07:18:13;6.70;;;2.73;;
6412;SDS011;3239;48.714;9.472;2023-05-19T07:20:39;7.07;;;2.30;;
6412;SDS011;3239;48.714;9.472;2023-05-19T07:23:05;9.63;;;3.07;;
6412;SDS011;3239;48.714;9.472;2023-05-19T07:25:31;10.63;;;3.30;;
6412;SDS011;3239;48.714;9.472;2023-05-19T07:27:57;8.27;;;3.00;;
6412;SDS011;3239;48.714;9.472;2023-05-19T07:30:23;5.93;;;2.83;;
6412;SDS011;3239;48.714;9.472;2023-05-19T07:32:52;7.83;;;3.20;;
6412;SDS011;3239;48.714;9.472;2023-05-19T07:35:18;5.37;;;2.43;;
6412;SDS011;3239;48.714;9.472;2023-05-19T07:37:46;5.53;;;2.20;;
6412;SDS011;3239;48.714;9.472;2023-05-19T07:40:16;4.13;;;2.83;;
6412;SDS011;3239;48.714;9.472;2023-05-19T07:42:42;13.93;;;2.87;;
6412;SDS011;3239;48.714;9.472;2023-05-19T07:45:08;5.37;;;2.60;;
6412;SDS011;3239;48.714;9.472;2023-05-19T07:47:35;10.30;;;2.90;;
6412;SDS011;3239;48.714;9.472;2023-05-19T07:50:02;8.07;;;2.90;;
6412;SDS011;3239;48.714;9.472;2023-05-19T07:52:28;6.40;;;2.40;;
6412;SDS011;3239;48.714;9.472;2023-05-19T07:54:54;7.93;;;2.30;;
6412;SDS011;3239;48.714;9.472;2023-05-19T07:57:19;8.90;;;3.17;;
6412;SDS011;3239;48.714;9.472;2023-05-19T07:59:46;7.67;;;2.70;;
6412;SDS011;3239;48.714;9.472;2023-05-19T08:02:11;4.70;;;2.27;;
6412;SDS011;3239;48.714;9.472;2023-05-19T08:04:37;7.93;;;2.30;;
6412;SDS011;3239;48.714;9.472;2023-05-19T08:07:03;6.30;;;2.20;;
6412;SDS011;3239;48.714;9.472;2023-05-19T08:09:28;9.93;;;2.30;;
6412;SDS011;3239;48.714;9.472;2023-05-19T08:11:54;4.23;;;2.53;;
6412;SDS011;3239;48.714;9.472;2023-05-19T08:14:20;5.07;;;2.53;;
6412;SDS011;3239;48.714;9.472;2023-05-19T08:16:47;4.87;;;2.70;;
6412;SDS011;3239;48.714;9.472;2023-05-19T08:19:13;9.47;;;2.30;;
6412;SDS011;3239;48.714;9.472;2023-05-19T08:21:39;7.33;;;2.60;;
6412;SDS011;3239;48.714;9.472;2023-05-19T08:24:06;12.47;;;2.40;;
6412;SDS011;3239;48.714;9.472;2023-05-19T08:26:33;7.13;;;2.50;;
6412;SDS011;3239;48.714;9.472;2023-05-19T08:28:59;3.93;;;2.27;;
6412;SDS011;3239;48.714;9.472;2023-05-19T08:31:25;9.70;;;2.33;;
6412;SDS011;3239;48.714;9.472;2023-05-19T08:33:50;9.80;;;2.70;;
6412;SDS011;3239;48.714;9.472;2023-05-19T08:36:17;9.03;;;3.00;;
6412;SDS011;3239;48.714;9.472;2023-05-19T08:38:43;4.37;;;2.40;;
6412;SDS011;3239;48.714;9.472;2023-05-19T08:41:09;10.20;;;3.37;;
6412;SDS011;3239;48.714;9.472;2023-05-19T08:43:35;6.47;;;2.40;;
6412;SDS011;3239;48.714;9.472;2023-05-19T08:46:01;4.07;;;2.20;;
6412;SDS011;3239;48.714;9.472;2023-05-19T08:48:29;4.50;;;1.97;;
6412;SDS011;3239;48.714;9.472;2023-05-19T08:51:10;9.10;;;2.70;;
6412;SDS011;3239;48.714;9.472;2023-05-19T08:54:03;9.90;;;2.40;;
6412;SDS011;3239;48.714;9.472;2023-05-19T08:56:39;5.13;;;2.30;;
6412;SDS011;3239;48.714;9.472;2023-05-19T08:59:09;4.17;;;2.20;;
6412;SDS011;3239;48.714;9.472;2023-05-19T09:01:36;10.20;;;3.10;;
6412;SDS011;3239;48.714;9.472;2023-05-19T09:04:03;10.23;;;4.20;;
6412;SDS011;3239;48.714;9.472;2023-05-19T09:06:30;5.80;;;2.73;;
6412;SDS011;3239;48.714;9.472;2023-05-19T09:08:56;6.30;;;2.40;;
6412;SDS011;3239;48.714;9.472;2023-05-19T09:11:22;6.63;;;2.53;;
6412;SDS011;3239;48.714;9.472;2023-05-19T09:13:48;7.80;;;2.80;;
6412;SDS011;3239;48.714;9.472;2023-05-19T09:16:14;8.93;;;2.77;;
6412;SDS011;3239;48.714;9.472;2023-05-19T09:18:52;6.90;;;2.40;;
6412;SDS011;3239;48.714;9.472;2023-05-19T09:21:30;5.60;;;2.70;;
6412;SDS011;3239;48.714;9.472;2023-05-19T09:24:03;8.53;;;2.73;;
6412;SDS011;3239;48.714;9.472;2023-05-19T09:26:41;6.03;;;2.27;;
6412;SDS011;3239;48.714;9.472;2023-05-19T09:29:14;7.50;;;2.70;;
6412;SDS011;3239;48.714;9.472;2023-05-19T09:34:18;5.70;;;2.60;;
6412;SDS011;3239;48.714;9.472;2023-05-19T09:36:49;5.10;;;2.93;;
6412;SDS011;3239;48.714;9.472;2023-05-19T09:39:15;10.93;;;3.33;;
6412;SDS011;3239;48.714;9.472;2023-05-19T09:41:46;8.00;;;3.10;;
6412;SDS011;3239;48.714;9.472;2023-05-19T09:46:52;6.83;;;2.13;;
6412;SDS011;3239;48.714;9.472;2023-05-19T09:49:26;9.27;;;3.33;;
6412;SDS011;3239;48.714;9.472;2023-05-19T09:51:58;5.83;;;1.83;;
6412;SDS011;3239;48.714;9.472;2023-05-19T09:54:27;4.33;;;2.13;;
6412;SDS011;3239;48.714;9.472;2023-05-19T09:56:56;8.63;;;3.17;;
6412;SDS011;3239;48.714;9.472;2023-05-19T09:59:27;8.77;;;3.73;;
6412;SDS011;3239;48.714;9.472;2023-05-19T10:01:55;7.57;;;2.43;;
6412;SDS011;3239;48.714;9.472;2023-05-19T10:04:27;5.93;;;2.60;;
6412;SDS011;3239;48.714;9.472;2023-05-19T10:06:54;9.30;;;2.87;;
6412;SDS011;3239;48.714;9.472;2023-05-19T10:09:29;5.30;;;3.20;;
6412;SDS011;3239;48.714;9.472;2023-05-19T10:11:56;8.33;;;3.03;;
6412;SDS011;3239;48.714;9.472;2023-05-19T10:14:26;11.43;;;3.67;;
6412;SDS011;3239;48.714;9.472;2023-05-19T10:16:54;8.43;;;2.90;;
6412;SDS011;3239;48.714;9.472;2023-05-19T10:19:22;10.53;;;3.30;;
6412;SDS011;3239;48.714;9.472;2023-05-19T10:21:50;8.60;;;3.07;;
6412;SDS011;3239;48.714;9.472;2023-05-19T10:24:16;7.20;;;2.30;;
6412;SDS011;3239;48.714;9.472;2023-05-19T10:26:44;5.50;;;2.80;;
6412;SDS011;3239;48.714;9.472;2023-05-19T10:29:39;6.30;;;2.10;;
6412;SDS011;3239;48.714;9.472;2023-05-19T10:32:13;8.50;;;2.10;;
6412;SDS011;3239;48.714;9.472;2023-05-19T10:34:58;4.70;;;2.27;;
6412;SDS011;3239;48.714;9.472;2023-05-19T10:43:48;7.07;;;1.90;;
6412;SDS011;3239;48.714;9.472;2023-05-19T10:46:40;10.00;;;2.10;;
6412;SDS011;3239;48.714;9.472;2023-05-19T10:49:07;14.30;;;2.57;;
6412;SDS011;3239;48.714;9.472;2023-05-19T10:51:32;7.10;;;2.37;;
6412;SDS011;3239;48.714;9.472;2023-05-19T10:54:06;20.50;;;8.53;;
6412;SDS011;3239;48.714;9.472;2023-05-19T10:56:33;6.30;;;3.73;;
6412;SDS011;3239;48.714;9.472;2023-05-19T10:59:05;3.70;;;2.10;;
6412;SDS011;3239;48.714;9.472;2023-05-19T11:01:34;4.43;;;2.10;;
6412;SDS011;3239;48.714;9.472;2023-05-19T11:04:06;5.73;;;2.33;;
6412;SDS011;3239;48.714;9.472;2023-05-19T11:06:37;6.00;;;2.00;;
6412;SDS011;3239;48.714;9.472;2023-05-19T11:09:14;3.30;;;2.10;;
6412;SDS011;3239;48.714;9.472;2023-05-19T11:11:43;5.37;;;2.30;;
6412;SDS011;3239;48.714;9.472;2023-05-19T11:14:14;7.73;;;2.00;;
6412;SDS011;3239;48.714;9.472;2023-05-19T11:16:50;5.47;;;1.90;;
6412;SDS011;3239;48.714;9.472;2023-05-19T11:21:54;5.20;;;2.27;;
6412;SDS011;3239;48.714;9.472;2023-05-19T11:27:16;4.70;;;2.20;;
6412;SDS011;3239;48.714;9.472;2023-05-19T11:29:47;4.43;;;2.10;;
6412;SDS011;3239;48.714;9.472;2023-05-19T11:32:13;3.47;;;1.97;;
6412;SDS011;3239;48.714;9.472;2023-05-19T11:34:40;3.60;;;1.93;;
6412;SDS011;3239;48.714;9.472;2023-05-19T11:37:06;4.07;;;2.00;;
6412;SDS011;3239;48.714;9.472;2023-05-19T11:39:33;3.57;;;2.27;;
6412;SDS011;3239;48.714;9.472;2023-05-19T11:41:59;10.47;;;2.60;;
6412;SDS011;3239;48.714;9.472;2023-05-19T11:44:25;7.13;;;2.07;;
6412;SDS011;3239;48.714;9.472;2023-05-19T11:46:51;4.30;;;2.03;;
6412;SDS011;3239;48.714;9.472;2023-05-19T11:49:17;4.97;;;2.20;;
6412;SDS011;3239;48.714;9.472;2023-05-19T11:51:43;4.73;;;2.30;;
6412;SDS011;3239;48.714;9.472;2023-05-19T11:54:10;4.10;;;2.30;;
6412;SDS011;3239;48.714;9.472;2023-05-19T11:56:42;9.20;;;2.83;;
6412;SDS011;3239;48.714;9.472;2023-05-19T11:59:08;4.47;;;1.93;;
6412;SDS011;3239;48.714;9.472;2023-05-19T12:01:34;7.30;;;2.40;;
6412;SDS011;3239;48.714;9.472;2023-05-19T12:04:01;4.17;;;2.30;;
6412;SDS011;3239;48.714;9.472;2023-05-19T12:06:32;6.03;;;2.63;;
6412;SDS011;3239;48.714;9.472;2023-05-19T12:08:58;4.50;;;2.10;;
6412;SDS011;3239;48.714;9.472;2023-05-19T12:11:24;5.53;;;2.30;;
6412;SDS011;3239;48.714;9.472;2023-05-19T12:13:59;4.03;;;2.40;;
6412;SDS011;3239;48.714;9.472;2023-05-19T12:16:32;6.00;;;2.73;;
6412;SDS011;3239;48.714;9.472;2023-05-19T12:18:59;7.63;;;2.80;;
6412;SDS011;3239;48.714;9.472;2023-05-19T12:21:28;4.27;;;2.23;;
6412;SDS011;3239;48.714;9.472;2023-05-19T12:23:55;9.60;;;2.80;;
6412;SDS011;3239;48.714;9.472;2023-05-19T12:26:21;5.93;;;2.43;;
6412;SDS011;3239;48.714;9.472;2023-05-19T12:28:46;11.97;;;2.50;;
6412;SDS011;3239;48.714;9.472;2023-05-19T12:31:14;10.13;;;3.50;;
6412;SDS011;3239;48.714;9.472;2023-05-19T12:33:41;8.07;;;2.93;;
6412;SDS011;3239;48.714;9.472;2023-05-19T12:36:07;4.00;;;2.27;;
6412;SDS011;3239;48.714;9.472;2023-05-19T12:38:34;3.27;;;1.90;;
6412;SDS011;3239;48.714;9.472;2023-05-19T12:41:03;6.53;;;2.60;;
6412;SDS011;3239;48.714;9.472;2023-05-19T12:43:31;5.07;;;2.67;;
6412;SDS011;3239;48.714;9.472;2023-05-19T12:45:57;8.33;;;2.87;;
6412;SDS011;3239;48.714;9.472;2023-05-19T12:48:32;6.87;;;3.30;;
6412;SDS011;3239;48.714;9.472;2023-05-19T12:50:58;7.17;;;2.80;;
6412;SDS011;3239;48.714;9.472;2023-05-19T12:53:25;6.43;;;2.80;;
6412;SDS011;3239;48.714;9.472;2023-05-19T12:55:52;7.30;;;3.17;;
6412;SDS011;3239;48.714;9.472;2023-05-19T12:58:17;8.30;;;3.47;;
6412;SDS011;3239;48.714;9.472;2023-05-19T13:00:44;5.10;;;2.87;;
6412;SDS011;3239;48.714;9.472;2023-05-19T13:03:17;7.67;;;2.90;;
6412;SDS011;3239;48.714;9.472;2023-05-19T13:05:44;11.67;;;3.50;;
6412;SDS011;3239;48.714;9.472;2023-05-19T13:08:13;9.60;;;3.30;;
6412;SDS011;3239;48.714;9.472;2023-05-19T13:10:44;9.10;;;3.33;;
6412;SDS011;3239;48.714;9.472;2023-05-19T13:13:11;8.50;;;3.20;;
6412;SDS011;3239;48.714;9.472;2023-05-19T13:15:44;6.60;;;3.03;;
6412;SDS011;3239;48.714;9.472;2023-05-19T13:18:14;9.50;;;3.10;;
6412;SDS011;3239;48.714;9.472;2023-05-19T13:20:41;11.03;;;3.57;;
6412;SDS011;3239;48.714;9.472;2023-05-19T13:23:09;6.03;;;3.23;;
6412;SDS011;3239;48.714;9.472;2023-05-19T13:25:36;6.13;;;3.00;;
6412;SDS011;3239;48.714;9.472;2023-05-19T13:28:02;6.70;;;2.80;;
6412;SDS011;3239;48.714;9.472;2023-05-19T13:30:33;7.63;;;3.20;;
6412;SDS011;3239;48.714;9.472;2023-05-19T13:33:00;5.27;;;2.77;;
6412;SDS011;3239;48.714;9.472;2023-05-19T13:35:26;6.90;;;3.17;;
6412;SDS011;3239;48.714;9.472;2023-05-19T13:37:52;6.57;;;2.73;;
6412;SDS011;3239;48.714;9.472;2023-05-19T13:40:18;5.60;;;3.00;;
6412;SDS011;3239;48.714;9.472;2023-05-19T13:42:44;5.50;;;3.20;;
6412;SDS011;3239;48.714;9.472;2023-05-19T13:45:10;5.50;;;2.80;;
6412;SDS011;3239;48.714;9.472;2023-05-19T13:47:37;11.53;;;3.57;;
6412;SDS011;3239;48.714;9.472;2023-05-19T13:50:03;9.60;;;3.10;;
6412;SDS011;3239;48.714;9.472;2023-05-19T13:52:30;8.33;;;2.60;;
6412;SDS011;3239;48.714;9.472;2023-05-19T13:54:56;9.33;;;3.47;;
6412;SDS011;3239;48.714;9.472;2023-05-19T13:57:22;12.33;;;3.10;;
6412;SDS011;3239;48.714;9.472;2023-05-19T13:59:49;6.60;;;2.83;;
6412;SDS011;3239;48.714;9.472;2023-05-19T14:02:15;7.23;;;3.27;;
6412;SDS011;3239;48.714;9.472;2023-05-19T14:04:40;4.93;;;2.57;;
6412;SDS011;3239;48.714;9.472;2023-05-19T14:07:06;3.37;;;2.30;;
6412;SDS011;3239;48.714;9.472;2023-05-19T14:09:34;15.03;;;2.80;;
6412;SDS011;3239;48.714;9.472;2023-05-19T14:12:00;6.43;;;3.13;;
6412;SDS011;3239;48.714;9.472;2023-05-19T14:14:26;9.30;;;2.60;;
6412;SDS011;3239;48.714;9.472;2023-05-19T14:16:52;7.50;;;2.70;;
6412;SDS011;3239;48.714;9.472;2023-05-19T14:19:18;6.40;;;2.73;;
6412;SDS011;3239;48.714;9.472;2023-05-19T14:21:43;9.03;;;3.17;;
6412;SDS011;3239;48.714;9.472;2023-05-19T14:24:09;5.30;;;2.60;;
6412;SDS011;3239;48.714;9.472;2023-05-19T14:26:35;3.70;;;2.80;;
6412;SDS011;3239;48.714;9.472;2023-05-19T14:29:01;6.80;;;2.97;;
6412;SDS011;3239;48.714;9.472;2023-05-19T14:31:27;7.70;;;2.67;;
6412;SDS011;3239;48.714;9.472;2023-05-19T14:33:53;5.67;;;2.70;;
6412;SDS011;3239;48.714;9.472;2023-05-19T14:36:18;9.70;;;2.87;;
6412;SDS011;3239;48.714;9.472;2023-05-19T14:38:44;6.60;;;2.97;;
6412;SDS011;3239;48.714;9.472;2023-05-19T14:41:10;6.13;;;3.03;;
6412;SDS011;3239;48.714;9.472;2023-05-19T14:43:36;4.50;;;2.20;;
6412;SDS011;3239;48.714;9.472;2023-05-19T14:46:02;3.97;;;2.30;;
6412;SDS011;3239;48.714;9.472;2023-05-19T14:48:27;5.77;;;3.10;;
6412;SDS011;3239;48.714;9.472;2023-05-19T14:50:53;6.27;;;2.40;;
6412;SDS011;3239;48.714;9.472;2023-05-19T14:53:19;11.43;;;4.17;;
6412;SDS011;3239;48.714;9.472;2023-05-19T14:55:48;4.60;;;2.93;;
6412;SDS011;3239;48.714;9.472;2023-05-19T14:58:13;6.17;;;2.57;;
6412;SDS011;3239;48.714;9.472;2023-05-19T15:00:41;3.00;;;2.50;;
6412;SDS011;3239;48.714;9.472;2023-05-19T15:03:07;6.40;;;2.50;;
6412;SDS011;3239;48.714;9.472;2023-05-19T15:05:35;9.50;;;2.60;;
6412;SDS011;3239;48.714;9.472;2023-05-19T15:08:01;9.13;;;2.63;;
6412;SDS011;3239;48.714;9.472;2023-05-19T15:10:27;9.40;;;2.90;;
6412;SDS011;3239;48.714;9.472;2023-05-19T15:12:53;4.77;;;2.40;;
6412;SDS011;3239;48.714;9.472;2023-05-19T15:15:24;9.07;;;3.13;;
6412;SDS011;3239;48.714;9.472;2023-05-19T15:17:50;5.60;;;3.07;;
6412;SDS011;3239;48.714;9.472;2023-05-19T15:20:15;11.33;;;2.63;;
6412;SDS011;3239;48.714;9.472;2023-05-19T15:22:41;4.13;;;2.20;;
6412;SDS011;3239;48.714;9.472;2023-05-19T15:25:07;9.07;;;2.37;;
6412;SDS011;3239;48.714;9.472;2023-05-19T15:27:34;4.83;;;2.60;;
6412;SDS011;3239;48.714;9.472;2023-05-19T15:30:03;4.60;;;2.20;;
6412;SDS011;3239;48.714;9.472;2023-05-19T15:32:29;6.00;;;2.27;;
6412;SDS011;3239;48.714;9.472;2023-05-19T15:34:56;9.17;;;2.40;;
6412;SDS011;3239;48.714;9.472;2023-05-19T15:37:21;4.33;;;2.03;;
6412;SDS011;3239;48.714;9.472;2023-05-19T15:39:47;10.40;;;2.33;;
6412;SDS011;3239;48.714;9.472;2023-05-19T15:42:13;4.17;;;2.43;;
6412;SDS011;3239;48.714;9.472;2023-05-19T15:44:39;4.43;;;2.20;;
6412;SDS011;3239;48.714;9.472;2023-05-19T15:47:04;6.53;;;3.57;;
6412;SDS011;3239;48.714;9.472;2023-05-19T15:49:30;13.13;;;9.97;;
6412;SDS011;3239;48.714;9.472;2023-05-19T15:51:56;24.27;;;15.30;;
6412;SDS011;3239;48.714;9.472;2023-05-19T15:54:22;22.20;;;14.70;;